createdAt,value
2023-01-11T00:01:12.818Z,0.20
2023-01-11T00:03:41.260Z,0.73
2023-01-11T00:06:11.326Z,0.57
2023-01-11T00:08:40.207Z,0.20
2023-01-11T00:11:16.462Z,1.50
2023-01-11T00:13:46.316Z,0.20
2023-01-11T00:16:15.115Z,0.20
2023-01-11T00:18:43.732Z,0.28
2023-01-11T00:21:12.314Z,0.30
2023-01-11T00:23:40.829Z,0.35
2023-01-11T00:26:12.660Z,0.20
2023-01-11T00:28:42.734Z,0.80
2023-01-11T00:31:11.213Z,0.38
2023-01-11T00:33:39.699Z,0.25
2023-01-11T00:36:09.007Z,0.20
2023-01-11T00:38:51.274Z,0.20
2023-01-11T00:41:34.084Z,0.20
2023-01-11T00:44:21.958Z,0.20
2023-01-11T00:47:08.253Z,0.30
2023-01-11T00:49:36.919Z,0.28
2023-01-11T00:52:08.905Z,0.20
2023-01-11T00:54:37.584Z,1.02
2023-01-11T00:57:07.236Z,0.95
2023-01-11T00:59:39.214Z,0.20
2023-01-11T01:02:08.256Z,0.55
2023-01-11T01:04:36.854Z,0.20
2023-01-11T01:07:05.622Z,0.30
2023-01-11T01:09:34.136Z,0.30
2023-01-11T01:12:02.900Z,0.20
2023-01-11T01:14:33.025Z,0.20
2023-01-11T01:17:04.698Z,0.52
2023-01-11T01:19:36.269Z,0.20
2023-01-11T01:22:04.826Z,0.20
2023-01-11T01:24:33.890Z,0.20
2023-01-11T01:27:02.296Z,0.32
2023-01-11T01:29:30.599Z,0.90
2023-01-11T01:31:59.042Z,1.40
2023-01-11T01:34:28.818Z,0.20
2023-01-11T01:36:57.231Z,0.63
2023-01-11T01:39:25.531Z,0.20
2023-01-11T01:41:53.963Z,0.20
2023-01-11T01:45:02.420Z,0.20
2023-01-11T01:47:36.910Z,0.20
2023-01-11T01:50:12.828Z,0.20
2023-01-11T01:52:41.847Z,0.15
2023-01-11T01:55:18.066Z,0.30
2023-01-11T01:57:46.739Z,0.20
2023-01-11T02:00:15.537Z,0.20
2023-01-11T02:02:46.073Z,0.20
2023-01-11T02:05:17.669Z,0.20
2023-01-11T02:07:48.088Z,0.22
2023-01-11T02:10:18.545Z,0.20
2023-01-11T02:12:50.569Z,0.17
2023-01-11T02:15:21.039Z,0.17
2023-01-11T02:17:49.430Z,0.20
2023-01-11T02:20:32.794Z,0.20
2023-01-11T02:23:36.363Z,0.75
2023-01-11T02:26:38.914Z,0.13
2023-01-11T02:29:14.894Z,0.20
2023-01-11T02:31:49.855Z,1.50
2023-01-11T02:34:30.167Z,0.43
2023-01-11T02:37:09.428Z,0.38
2023-01-11T02:39:45.853Z,0.20
2023-01-11T02:42:48.154Z,0.20
2023-01-11T02:45:26.732Z,0.20
2023-01-11T02:48:00.175Z,0.20
2023-01-11T02:50:33.043Z,0.20
2023-01-11T02:53:08.834Z,0.10
2023-01-11T02:55:42.483Z,0.15
2023-01-11T02:58:13.497Z,0.20
2023-01-11T03:00:44.167Z,0.20
2023-01-11T03:03:16.522Z,0.20
2023-01-11T03:05:50.232Z,0.20
2023-01-11T03:08:31.547Z,0.20
2023-01-11T03:11:05.009Z,2.08
2023-01-11T03:13:47.864Z,0.20
2023-01-11T03:16:25.080Z,0.20
2023-01-11T03:19:01.035Z,0.20
2023-01-11T03:22:00.618Z,0.15
2023-01-11T03:24:33.579Z,0.20
2023-01-11T03:27:13.287Z,0.25
2023-01-11T03:29:50.768Z,0.15
2023-01-11T03:32:28.201Z,0.20
2023-01-11T03:35:05.799Z,0.15
2023-01-11T03:37:39.005Z,0.10
2023-01-11T03:40:11.575Z,0.57
2023-01-11T03:42:59.011Z,0.45
2023-01-11T03:45:28.832Z,0.20
2023-01-11T03:48:02.304Z,0.10
2023-01-11T03:50:34.407Z,0.20
2023-01-11T03:53:06.474Z,0.20
2023-01-11T03:55:39.416Z,0.38
2023-01-11T03:58:08.935Z,0.20
2023-01-11T04:00:38.469Z,0.20
2023-01-11T04:03:09.571Z,0.20
2023-01-11T04:05:43.588Z,0.40
2023-01-11T04:08:12.392Z,0.10
2023-01-11T04:10:40.800Z,0.20
2023-01-11T04:13:09.184Z,0.20
2023-01-11T04:15:37.925Z,0.25
2023-01-11T04:18:08.126Z,0.82
2023-01-11T04:20:38.769Z,0.22
2023-01-11T04:23:08.398Z,0.20
2023-01-11T04:25:36.907Z,0.10
2023-01-11T04:28:05.451Z,0.20
2023-01-11T04:30:33.799Z,0.20
2023-01-11T04:33:02.412Z,0.10
2023-01-11T04:35:32.162Z,0.20
2023-01-11T04:38:00.591Z,0.20
2023-01-11T04:40:28.982Z,0.28
2023-01-11T04:42:56.322Z,0.20
2023-01-11T04:45:24.726Z,0.20
2023-01-11T04:47:56.602Z,0.10
2023-01-11T04:50:25.301Z,0.17
2023-01-11T04:52:55.134Z,0.20
2023-01-11T04:55:23.476Z,0.20
2023-01-11T04:57:51.859Z,0.20
2023-01-11T05:00:20.748Z,0.20
2023-01-11T05:02:49.057Z,0.20
2023-01-11T05:05:17.407Z,0.20
2023-01-11T05:07:45.711Z,0.20
2023-01-11T05:10:15.414Z,0.17
2023-01-11T05:12:43.770Z,0.13
2023-01-11T05:15:12.636Z,0.20
2023-01-11T05:17:41.157Z,0.40
2023-01-11T05:20:11.378Z,0.20
2023-01-11T05:22:39.741Z,0.38
2023-01-11T05:25:08.977Z,0.80
2023-01-11T05:27:38.700Z,0.20
2023-01-11T05:30:08.456Z,0.30
2023-01-11T05:32:36.831Z,1.08
2023-01-11T05:35:05.564Z,0.20
2023-01-11T05:37:33.911Z,0.20
2023-01-11T05:40:02.446Z,0.20
2023-01-11T05:42:31.048Z,0.20
2023-01-11T05:45:18.041Z,0.20
2023-01-11T05:47:46.403Z,0.20
2023-01-11T05:50:14.913Z,0.20
2023-01-11T05:52:43.363Z,0.20
2023-01-11T05:55:11.772Z,0.20
2023-01-11T05:57:42.014Z,0.20
2023-01-11T06:00:14.051Z,0.20
2023-01-11T06:02:42.593Z,0.20
2023-01-11T06:05:11.238Z,0.20
2023-01-11T06:07:40.008Z,1.85
2023-01-11T06:10:09.941Z,0.20
2023-01-11T06:12:38.321Z,0.20
2023-01-11T06:15:08.280Z,0.20
2023-01-11T06:17:38.087Z,0.38
2023-01-11T06:20:08.044Z,0.15
2023-01-11T06:22:51.263Z,0.20
2023-01-11T06:25:25.304Z,0.40
2023-01-11T06:27:54.043Z,0.20
2023-01-11T06:30:25.628Z,1.20
2023-01-11T06:32:55.418Z,0.20
2023-01-11T06:35:23.936Z,0.38
2023-01-11T06:37:52.463Z,0.93
2023-01-11T06:40:20.901Z,0.30
2023-01-11T06:42:49.319Z,0.45
2023-01-11T06:45:17.952Z,0.30
2023-01-11T06:47:46.505Z,1.08
2023-01-11T06:50:16.914Z,0.20
2023-01-11T06:52:52.679Z,0.20
2023-01-11T06:55:21.365Z,0.30
2023-01-11T06:57:49.809Z,0.20
2023-01-11T07:00:19.538Z,0.20
2023-01-11T07:02:48.782Z,0.20
2023-01-11T07:05:19.463Z,0.85
2023-01-11T07:07:48.093Z,0.20
2023-01-11T07:10:17.503Z,0.20
2023-01-11T07:12:50.222Z,0.20
2023-01-11T07:15:19.066Z,0.22
2023-01-11T07:17:49.441Z,0.32
2023-01-11T07:20:19.521Z,0.30
2023-01-11T07:22:48.268Z,1.08
2023-01-11T07:25:16.735Z,0.73
2023-01-11T07:27:45.220Z,1.88
2023-01-11T07:30:14.466Z,0.40
2023-01-11T07:32:42.873Z,0.22
2023-01-11T07:35:11.324Z,0.40
2023-01-11T07:37:41.601Z,0.30
2023-01-11T07:40:11.463Z,0.60
2023-01-11T07:42:57.545Z,0.70
2023-01-11T07:48:08.289Z,0.75
2023-01-11T07:50:37.829Z,2.35
2023-01-11T07:53:08.103Z,0.93
2023-01-11T07:55:37.739Z,0.70
2023-01-11T07:58:06.286Z,1.50
2023-01-11T08:00:34.644Z,1.10
2023-01-11T08:03:03.502Z,1.33
2023-01-11T08:05:32.050Z,1.98
2023-01-11T08:08:00.392Z,3.03
2023-01-11T08:10:30.715Z,2.78
2023-01-11T08:13:17.055Z,2.97
2023-01-11T08:15:45.479Z,3.00
2023-01-11T08:18:13.981Z,3.67
2023-01-11T08:20:42.351Z,4.13
2023-01-11T08:23:11.668Z,4.55
2023-01-11T08:25:41.309Z,3.80
2023-01-11T08:28:09.722Z,5.10
2023-01-11T08:30:38.699Z,5.90
2023-01-11T08:33:07.054Z,8.93
2023-01-11T08:35:39.476Z,8.48
2023-01-11T08:38:08.162Z,3.80
2023-01-11T08:40:36.838Z,6.30
2023-01-11T08:43:06.916Z,9.80
2023-01-11T08:45:35.278Z,5.63
2023-01-11T08:48:03.682Z,7.88
2023-01-11T08:50:32.049Z,6.68
2023-01-11T08:53:00.432Z,5.47
2023-01-11T08:55:30.662Z,10.35
2023-01-11T08:57:59.036Z,7.82
2023-01-11T09:00:28.986Z,10.35
2023-01-11T09:02:57.406Z,10.43
2023-01-11T09:05:25.756Z,7.60
2023-01-11T09:07:55.435Z,6.53
2023-01-11T09:10:26.827Z,11.23
2023-01-11T09:12:55.379Z,4.85
2023-01-11T09:15:24.590Z,5.95
2023-01-11T09:17:54.570Z,8.27
2023-01-11T09:20:23.307Z,7.25
2023-01-11T09:22:53.875Z,8.57
2023-01-11T09:25:22.497Z,7.75
2023-01-11T09:27:52.387Z,6.95
2023-01-11T09:30:23.456Z,6.43
2023-01-11T09:32:54.985Z,7.43
2023-01-11T09:35:23.373Z,7.85
2023-01-11T09:37:54.337Z,9.02
2023-01-11T09:40:30.911Z,9.45
2023-01-11T09:43:03.984Z,6.50
2023-01-11T09:45:33.869Z,7.95
2023-01-11T09:48:12.505Z,9.18
2023-01-11T09:50:43.887Z,11.55
2023-01-11T09:53:18.956Z,11.10
2023-01-11T09:55:52.176Z,9.88
2023-01-11T09:58:38.493Z,6.30
2023-01-11T10:01:14.682Z,10.25
2023-01-11T10:04:16.353Z,7.97
2023-01-11T10:06:59.156Z,3.85
2023-01-11T10:18:26.622Z,6.88
2023-01-11T10:19:10.424Z,6.20
2023-01-11T10:21:38.873Z,5.93
2023-01-11T10:24:14.712Z,6.03
2023-01-11T10:26:43.923Z,7.30
2023-01-11T10:29:38.527Z,8.60
2023-01-11T10:32:34.584Z,12.85
2023-01-11T10:35:41.110Z,10.00
2023-01-11T10:38:43.314Z,5.95
2023-01-11T10:41:25.802Z,7.45
2023-01-11T10:44:04.996Z,13.68
2023-01-11T10:46:39.511Z,5.10
2023-01-11T10:49:37.185Z,4.72
2023-01-11T10:52:18.938Z,8.90
2023-01-11T10:54:54.622Z,7.18
2023-01-11T10:57:37.377Z,7.93
2023-01-11T11:00:21.261Z,4.65
2023-01-11T11:03:05.237Z,10.35
2023-01-11T11:05:43.839Z,8.30
2023-01-11T11:08:18.424Z,9.43
2023-01-11T11:10:56.949Z,7.30
2023-01-11T11:13:38.887Z,9.68
2023-01-11T11:16:15.842Z,6.47
2023-01-11T11:18:44.692Z,9.90
2023-01-11T11:21:22.248Z,7.00
2023-01-11T11:23:57.725Z,5.55
2023-01-11T11:26:31.858Z,7.32
2023-01-11T11:29:02.601Z,6.00
2023-01-11T11:31:32.384Z,4.40
2023-01-11T11:34:06.942Z,5.22
2023-01-11T11:36:43.628Z,6.20
2023-01-11T11:39:20.353Z,8.07
2023-01-11T11:41:52.032Z,4.55
2023-01-11T11:44:24.298Z,6.07
2023-01-11T11:47:00.738Z,3.67
2023-01-11T11:49:30.274Z,6.53
2023-01-11T11:52:00.549Z,6.65
2023-01-11T11:54:32.599Z,10.27
2023-01-11T11:57:15.464Z,5.63
2023-01-11T11:59:47.395Z,7.25
2023-01-11T12:02:25.515Z,4.30
2023-01-11T12:04:55.713Z,7.47
2023-01-11T12:07:27.136Z,5.70
2023-01-11T12:10:00.905Z,7.28
2023-01-11T12:12:33.681Z,6.63
2023-01-11T12:15:24.870Z,8.23
2023-01-11T12:17:54.436Z,6.75
2023-01-11T12:20:32.020Z,5.07
2023-01-11T12:23:14.741Z,5.80
2023-01-11T12:25:54.309Z,4.57
2023-01-11T12:28:30.933Z,3.80
2023-01-11T12:31:08.836Z,9.15
2023-01-11T12:33:45.489Z,4.80
2023-01-11T12:36:20.440Z,9.23
2023-01-11T12:39:00.533Z,5.38
2023-01-11T12:42:02.614Z,4.50
2023-01-11T12:44:44.675Z,8.80
2023-01-11T12:47:42.404Z,8.45
2023-01-11T12:50:18.524Z,9.25
2023-01-11T12:52:58.525Z,7.45
2023-01-11T12:55:38.594Z,5.93
2023-01-11T12:58:15.055Z,9.02
2023-01-11T13:01:07.481Z,6.78
2023-01-11T13:04:14.892Z,5.63
2023-01-11T13:06:48.911Z,6.55
2023-01-11T13:09:29.551Z,5.78
2023-01-11T13:12:05.100Z,5.35
2023-01-11T13:17:21.633Z,7.88
2023-01-11T13:20:03.602Z,8.07
2023-01-11T13:22:36.897Z,8.95
2023-01-11T13:25:17.856Z,6.95
2023-01-11T13:27:48.113Z,6.82
2023-01-11T13:30:19.854Z,7.72
2023-01-11T13:32:55.946Z,10.70
2023-01-11T13:35:35.134Z,6.45
2023-01-11T13:38:14.653Z,7.70
2023-01-11T13:40:49.617Z,6.10
2023-01-11T13:43:22.958Z,8.82
2023-01-11T13:45:55.548Z,5.85
2023-01-11T13:48:28.565Z,8.38
2023-01-11T13:51:02.694Z,6.80
2023-01-11T13:53:40.310Z,11.10
2023-01-11T13:56:15.667Z,9.25
2023-01-11T13:59:00.267Z,4.65
2023-01-11T14:01:41.262Z,5.75
2023-01-11T14:04:16.836Z,8.77
2023-01-11T14:09:50.737Z,5.15
2023-01-11T14:12:32.237Z,13.88
2023-01-11T14:15:13.184Z,3.60
2023-01-11T14:18:05.521Z,7.25
2023-01-11T14:20:51.930Z,7.18
2023-01-11T14:23:23.019Z,5.45
2023-01-11T14:26:09.612Z,8.55
2023-01-11T14:29:01.152Z,6.88
2023-01-11T14:31:45.783Z,7.55
2023-01-11T14:34:39.129Z,4.45
2023-01-11T14:37:26.745Z,5.55
2023-01-11T14:40:42.622Z,5.05
2023-01-11T14:43:32.637Z,10.88
2023-01-11T14:46:44.139Z,6.53
2023-01-11T14:49:24.755Z,6.05
2023-01-11T14:51:57.431Z,8.27
2023-01-11T14:57:38.006Z,5.68
2023-01-11T15:00:47.994Z,7.93
2023-01-11T15:03:53.606Z,7.15
2023-01-11T15:08:54.872Z,5.97
2023-01-11T15:11:42.859Z,4.28
2023-01-11T15:14:27.801Z,2.85
2023-01-11T15:17:19.783Z,4.13
2023-01-11T15:19:50.103Z,4.38
2023-01-11T15:22:25.459Z,5.07
2023-01-11T15:25:22.806Z,9.00
2023-01-11T15:27:53.693Z,8.02
2023-01-11T15:30:51.837Z,12.35
2023-01-11T15:33:30.516Z,4.47
2023-01-11T15:36:03.739Z,8.13
2023-01-11T15:38:42.410Z,4.93
2023-01-11T15:41:34.350Z,6.43
2023-01-11T15:44:22.111Z,5.28
2023-01-11T15:47:23.291Z,5.53
2023-01-11T15:50:16.629Z,9.98
2023-01-11T15:53:24.940Z,6.32
2023-01-11T15:56:22.875Z,5.40
2023-01-11T15:59:17.901Z,4.50
2023-01-11T16:02:25.072Z,4.95
2023-01-11T16:04:58.153Z,5.05
2023-01-11T16:07:40.283Z,2.42
2023-01-11T16:10:27.553Z,2.22
2023-01-11T16:13:28.189Z,7.63
2023-01-11T16:16:12.029Z,5.45
2023-01-11T16:18:44.861Z,3.67
2023-01-11T16:21:24.965Z,5.03
2023-01-11T16:23:56.288Z,6.20
2023-01-11T16:26:25.143Z,5.00
2023-01-11T16:28:57.372Z,5.88
2023-01-11T16:31:47.644Z,3.78
2023-01-11T16:34:19.178Z,4.38
2023-01-11T16:36:49.136Z,3.30
2023-01-11T16:39:22.794Z,8.73
2023-01-11T16:41:56.501Z,3.75
2023-01-11T16:44:34.874Z,6.05
2023-01-11T16:47:12.353Z,6.20
2023-01-11T16:49:42.943Z,3.85
2023-01-11T16:52:39.892Z,3.53
2023-01-11T16:55:18.854Z,5.43
2023-01-11T16:58:00.849Z,7.05
2023-01-11T17:00:35.679Z,5.60
2023-01-11T17:03:31.063Z,5.75
2023-01-11T17:06:18.083Z,3.45
2023-01-11T17:08:49.494Z,3.83
2023-01-11T17:11:26.614Z,4.55
2023-01-11T17:14:40.499Z,5.32
2023-01-11T17:17:11.777Z,3.35
2023-01-11T17:19:46.779Z,6.22
2023-01-11T17:22:21.645Z,6.93
2023-01-11T17:24:53.960Z,5.75
2023-01-11T17:27:26.602Z,1.88
2023-01-11T17:29:57.829Z,5.85
2023-01-11T17:32:34.536Z,6.65
2023-01-11T17:35:07.084Z,3.72
2023-01-11T17:37:35.778Z,3.80
2023-01-11T17:40:05.979Z,4.78
2023-01-11T17:42:52.044Z,3.63
2023-01-11T17:47:51.568Z,7.00
2023-01-11T17:50:28.158Z,6.35
2023-01-11T17:53:08.043Z,11.48
2023-01-11T17:55:36.883Z,2.92
2023-01-11T17:58:21.533Z,6.95
2023-01-11T18:01:16.041Z,3.67
2023-01-11T18:03:46.547Z,3.60
2023-01-11T18:06:32.518Z,6.38
2023-01-11T18:09:03.727Z,4.80
2023-01-11T18:11:35.608Z,6.00
2023-01-11T18:14:08.248Z,4.88
2023-01-11T18:16:37.816Z,5.32
2023-01-11T18:19:25.528Z,8.50
2023-01-11T18:21:55.545Z,7.80
2023-01-11T18:24:53.754Z,6.70
2023-01-11T18:27:31.522Z,4.50
2023-01-11T18:30:02.755Z,5.70
2023-01-11T18:32:36.463Z,5.68
2023-01-11T18:35:05.820Z,8.95
2023-01-11T18:37:35.645Z,3.97
2023-01-11T18:40:04.301Z,7.80
2023-01-11T18:42:33.869Z,5.40
2023-01-11T18:45:02.291Z,8.35
2023-01-11T18:47:30.703Z,9.30
2023-01-11T18:49:59.701Z,4.63
2023-01-11T18:52:31.616Z,6.70
2023-01-11T18:55:01.525Z,8.43
2023-01-11T18:57:30.485Z,9.32
2023-01-11T18:59:59.088Z,8.90
2023-01-11T19:02:29.215Z,4.97
2023-01-11T19:04:58.110Z,3.70
2023-01-11T19:07:29.303Z,4.90
2023-01-11T19:09:59.286Z,4.28
2023-01-11T19:12:29.216Z,4.10
2023-01-11T19:14:59.132Z,4.35
2023-01-11T19:17:28.522Z,3.53
2023-01-11T19:19:56.993Z,5.03
2023-01-11T19:22:26.735Z,5.03
2023-01-11T19:24:55.661Z,4.38
2023-01-11T19:27:24.230Z,6.70
2023-01-11T19:29:53.979Z,4.13
2023-01-11T19:32:25.014Z,6.50
2023-01-11T19:34:57.868Z,5.57
2023-01-11T19:38:10.744Z,7.07
2023-01-11T19:40:53.109Z,5.57
2023-01-11T19:43:21.528Z,3.22
2023-01-11T19:45:57.639Z,3.13
2023-01-11T19:48:26.406Z,4.90
2023-01-11T19:51:02.010Z,5.40
2023-01-11T19:56:01.501Z,4.57
2023-01-11T19:58:30.211Z,7.05
2023-01-11T20:01:00.509Z,4.00
2023-01-11T20:03:30.200Z,7.03
2023-01-11T20:06:04.775Z,5.20
2023-01-11T20:08:36.007Z,4.35
2023-01-11T20:11:08.574Z,5.88
2023-01-11T20:13:37.243Z,7.18
2023-01-11T20:16:09.197Z,5.22
2023-01-11T20:18:38.138Z,3.78
2023-01-11T20:21:06.924Z,4.20
2023-01-11T20:23:35.400Z,3.45
2023-01-11T20:26:06.366Z,2.65
2023-01-11T20:28:35.141Z,3.88
2023-01-11T20:31:08.869Z,4.93
2023-01-11T20:33:37.595Z,6.28
2023-01-11T20:36:14.006Z,4.85
2023-01-11T20:38:42.957Z,7.50
2023-01-11T20:41:12.830Z,6.47
2023-01-11T20:43:42.378Z,4.30
2023-01-11T20:46:12.172Z,3.10
2023-01-11T20:48:40.712Z,2.55
2023-01-11T20:51:09.092Z,2.55
2023-01-11T20:53:37.529Z,6.20
2023-01-11T20:56:06.161Z,3.83
2023-01-11T20:58:34.607Z,3.40
2023-01-11T21:01:04.751Z,3.42
2023-01-11T21:03:34.639Z,6.13
2023-01-11T21:06:03.706Z,5.65
2023-01-11T21:08:32.684Z,7.60
2023-01-11T21:11:05.518Z,6.88
2023-01-11T21:13:34.114Z,6.65
2023-01-11T21:16:07.385Z,4.65
2023-01-11T21:18:37.234Z,4.47
2023-01-11T21:21:06.361Z,4.70
2023-01-11T21:23:34.774Z,5.68
2023-01-11T21:26:04.813Z,4.43
2023-01-11T21:28:33.271Z,5.22
2023-01-11T21:31:04.242Z,5.72
2023-01-11T21:33:32.885Z,5.65
2023-01-11T21:36:05.076Z,4.65
2023-01-11T21:38:34.721Z,4.57
2023-01-11T21:41:07.380Z,5.22
2023-01-11T21:43:36.406Z,7.13
2023-01-11T21:46:06.435Z,5.15
2023-01-11T21:48:35.100Z,9.48
2023-01-11T21:51:09.070Z,7.15
2023-01-11T21:53:37.791Z,6.10
2023-01-11T21:56:07.851Z,5.53
2023-01-11T21:58:36.649Z,6.20
2023-01-11T22:01:10.902Z,7.25
2023-01-11T22:03:42.032Z,5.60
2023-01-11T22:06:12.260Z,4.03
2023-01-11T22:08:41.525Z,5.13
2023-01-11T22:11:10.900Z,2.92
2023-01-11T22:13:39.275Z,5.07
2023-01-11T22:16:10.104Z,4.78
2023-01-11T22:18:40.538Z,5.43
2023-01-11T22:21:11.711Z,6.47
2023-01-11T22:23:40.892Z,6.30
2023-01-11T22:26:12.339Z,5.10
2023-01-11T22:28:55.335Z,4.47
2023-01-11T22:31:24.621Z,4.75
2023-01-11T22:33:53.343Z,8.93
2023-01-11T22:36:24.159Z,5.22
2023-01-11T22:38:52.837Z,5.30
2023-01-11T22:41:21.829Z,6.53
2023-01-11T22:43:50.563Z,6.32
2023-01-11T22:46:20.652Z,4.95
2023-01-11T22:48:49.406Z,2.47
2023-01-11T22:51:19.924Z,3.63
2023-01-11T22:53:51.117Z,9.65
2023-01-11T22:56:22.104Z,8.07
2023-01-11T22:58:51.069Z,4.70
2023-01-11T23:01:22.055Z,3.25
2023-01-11T23:03:51.678Z,3.38
2023-01-11T23:06:21.853Z,6.97
2023-01-11T23:08:51.860Z,5.60
2023-01-11T23:11:35.827Z,8.80
2023-01-11T23:14:05.588Z,4.43
2023-01-11T23:16:34.418Z,4.38
2023-01-11T23:19:03.243Z,6.43
2023-01-11T23:21:31.780Z,4.82
2023-01-11T23:24:03.485Z,5.72
2023-01-11T23:26:31.841Z,6.97
2023-01-11T23:29:00.316Z,5.88
2023-01-11T23:31:29.335Z,6.07
2023-01-11T23:33:59.593Z,4.93
2023-01-11T23:36:30.272Z,9.98
2023-01-11T23:38:59.634Z,5.28
2023-01-11T23:41:46.720Z,6.60
2023-01-11T23:44:16.715Z,5.07
2023-01-11T23:47:03.629Z,5.47
2023-01-11T23:49:33.271Z,10.18
2023-01-11T23:52:02.156Z,7.45
2023-01-11T23:54:32.496Z,4.80
2023-01-11T23:57:03.550Z,4.18
2023-01-11T23:59:32.355Z,8.70
